Metar Cercanos

 

LEPA - Palma De Mallorc, Spain
Distance from station: ONO 38km
Actualización: 13/12/2017 14:00
Few Clouds
Few Clouds
 Viento del O
Viento: O 26 km/h
Temperatura: 15°C
Rocío: 4°C
Humedad: 48%
Barómetro: 1024 hPa
Clouds: Few Clouds
Visibility: 10 km
Cloud details: Few Clouds 914 m
2017/12/13 13:00 LEPA 131300Z 26014KT 9999 FEW030 15/04 Q1024 NOSIG
LEMH - Mahon/Menorca Is, Spain
Distance from station: ENE 105km
Actualización: 13/12/2017 14:00
Parcialmente nuboso
Parcialmente nuboso
 Viento del O
Viento: O 17 km/h
Temperatura: 15°C
Rocío: 6°C
Humedad: 55%
Barómetro: 1024 hPa
Clouds: Parcialmente nuboso
Visibility: 10 km
Cloud details: Parcialmente nuboso 914 m
2017/12/13 13:00 LEMH 131300Z 26009KT 230V290 9999 SCT030 15/06 Q1024
 
LEIB - Ibiza/Es Codola, Spain
Distance from station: OSO 165km
Actualización: 13/12/2017 14:00
Despejado
Despejado
 Viento del SO
Viento: SO 22 km/h
Temperatura: 15°C
Rocío: 5°C
Humedad: 51%
Barómetro: 1025 hPa
Resumen: Despejado
Visibility: greater than 10 km
2017/12/13 13:00 LEIB 131300Z 23012KT CAVOK 15/05 Q1025 NOSIG
LEBL - Barcelona Airpor, Spain
Distance from station: NNO 225km
Actualización: 13/12/2017 14:00
Despejado
Despejado
 Viento del OSO
Viento: OSO 24 km/h
Temperatura: 13°C
Rocío: 2°C
Humedad: 47%
Barómetro: 1022 hPa
Resumen: Despejado
Visibility: greater than 10 km
2017/12/13 13:00 LEBL 131300Z 24013KT CAVOK 13/02 Q1022 NOSIG
 
LEVC - Valencia (civ/Mi, Spain
Distance from station: NO 188km
Actualización: 13/12/2017 14:00
Despejado
Despejado
 Viento del OSO
Viento: OSO 28 km/h
Temperatura: 15°C
Rocío: -1°C
Humedad: 34%
Barómetro: 1024 hPa
Resumen: Despejado
Visibility: greater than 10 km
2017/12/13 13:00 LEVC 131300Z 25015KT CAVOK 15/M01 Q1024 NOSIG
LEGE - Gerona/Costa Bra, Spain
Distance from station: N 276km
Actualización: 13/12/2017 14:00
Few Clouds
Few Clouds
 Viento del calm
Viento: Calma
Temperatura: 11°C
Rocío: -1°C
Humedad: 44%
Barómetro: 1020 hPa
Clouds: Few Clouds
Visibility: 10 km
Cloud details: Few Clouds 1829 m
2017/12/13 13:00 LEGE 131300Z 00000KT 9999 FEW060 11/M01 Q1020
 
LEAL - Alicante/El Alte, Spain
Distance from station: OSO 344km
Actualización: 13/12/2017 14:00
Despejado
Despejado
 Viento del SO
Viento: SO 17 km/h
Temperatura: 15°C
Rocío: 0°C
Humedad: 36%
Barómetro: 1025 hPa
Resumen: Despejado
Visibility: greater than 10 km
2017/12/13 13:00 LEAL 131300Z 23009KT 180V270 CAVOK 15/M00 Q1025 NOSIG
LEAM - Almeria Airport, Spain
Distance from station: SSO 56km
Actualización: 13/12/2017 14:00
Despejado
Despejado
 Viento del SSO
Viento: SSO 6 km/h
Temperatura: 15°C
Rocío: 5°C
Humedad: 51%
Barómetro: 1027 hPa
Resumen: Despejado
Visibility: greater than 10 km
2017/12/13 13:00 LEAM 131300Z 20003KT 160V250 CAVOK 15/05 Q1027
 
LEZG - Zaragoza (mil/Ci, Spain
Distance from station: NO 431km
Actualización: 13/12/2017 14:00
Despejado
Despejado
 Viento del NO
Viento: NO 6 km/h
Temperatura: 7°C
Rocío: 2°C
Humedad: 71%
Barómetro: 1023 hPa
Resumen: Despejado
Visibility: greater than 10 km
2017/12/13 13:00 LEZG 131300Z 31003KT 260V020 CAVOK 07/02 Q1023
LEMD - Madrid/Barajas, Spain
Distance from station: ONO 234km
Actualización: 13/12/2017 14:00
Parcialmente nuboso
Parcialmente nuboso
 Viento del S
Viento: S 6 km/h
Temperatura: 8°C
Rocío: 1°C
Humedad: 62%
Barómetro: 1026 hPa
Clouds: Parcialmente nuboso
Visibility: 10 km
Cloud details: Parcialmente nuboso 1219 m
2017/12/13 13:00 LEMD 131300Z 18003KT 9999 SCT040 08/01 Q1026 NOSIG
 
LEGR - Granada Airport, Spain
Distance from station: OSO 62km
Actualización: 13/12/2017 14:00
Despejado
Despejado
 Viento del calm
Viento: Calma
Temperatura: 11°C
Rocío: -1°C
Humedad: 44%
Barómetro: 1028 hPa
Resumen: Despejado
Visibility: greater than 10 km
2017/12/13 13:00 LEGR 131300Z 00000KT CAVOK 11/M01 Q1028
LEMG - Malaga (civ/Mil), Spain
Distance from station: OSO 227km
Actualización: 13/12/2017 14:00
Few Clouds
Few Clouds
 Viento del SE
Viento: SE 6 km/h
Temperatura: 16°C
Rocío: 6°C
Humedad: 52%
Barómetro: 1028 hPa
Clouds: Few Clouds
Visibility: 10 km
Cloud details: Few Clouds 914 m
2017/12/13 13:00 LEMG 131300Z 14003KT 090V190 9999 FEW030 16/06 Q1028 NOSIG
 
LEZL - Sevilla (civ/Mil, Spain
Distance from station: S 318km
Actualización: 13/12/2017 14:00
Despejado
Despejado
 Viento del ENE
Viento: ENE 9 km/h
Temperatura: 14°C
Rocío: 5°C
Humedad: 55%
Barómetro: 1028 hPa
Resumen: Despejado
Visibility: greater than 10 km
2017/12/13 13:00 LEZL 131300Z 06005KT 030V090 CAVOK 14/05 Q1028 NOSIG
LEVT - Vitoria, Spain
Distance from station: NO 226km
Actualización: 13/12/2017 14:00
Few Clouds
Few Clouds
 Viento del OSO
Viento: OSO 31 km/h
Temperatura: 8°C
Sensación frio: 3°C
Rocío: 4°C
Humedad: 76%
Barómetro: 1021 hPa
Clouds: Few Clouds
Visibility: 10 km
Cloud details: Few Clouds 640 m
2017/12/13 13:00 LEVT 131300Z 24017KT 9999 FEW021 08/04 Q1021
 
LEBB - Bilbao/Sondica, Spain
Distance from station: NNO 235km
Actualización: 13/12/2017 14:00
Despejado
Despejado
 Viento del SO
Viento: SO 22 km/h, Racha: 43 km/h
Temperatura: 13°C
Rocío: 5°C
Humedad: 59%
Barómetro: 1019 hPa
Resumen: Despejado
Visibility: greater than 10 km
2017/12/13 13:00 LEBB 131300Z 22012G23KT 160V280 CAVOK 13/05 Q1019 NOSIG
LESO - San Sebastian/Fu, Spain
Distance from station: N 231km
Actualización: 13/12/2017 14:00
Despejado
Despejado
 Viento del SO
Viento: SO 13 km/h
Temperatura: 13°C
Rocío: 5°C
Humedad: 59%
Barómetro: 1018 hPa
Resumen: Despejado
Visibility: greater than 10 km
2017/12/13 13:00 LESO 131300Z 22007KT CAVOK 13/05 Q1018
 
LEVD - Valladolid(Mil/C, Spain
Distance from station: ONO 239km
Actualización: 13/12/2017 14:00
Muy nuboso
Muy nuboso
 Viento del SO
Viento: SO 28 km/h
Temperatura: 7°C
Sensación frio: 3°C
Rocío: 5°C
Humedad: 87%
Barómetro: 1024 hPa
Clouds: Muy nuboso
Visibility: 10 km
Cloud details: Muy nuboso 244 m
Muy nuboso 366 m
2017/12/13 13:00 LEVD 131300Z 23015KT 9999 BKN008 BKN012 07/05 Q1024
LESA - Salamanca (civ/M, Spain
Distance from station: ONO 349km
Actualización: 13/12/2017 14:00
Muy nuboso
Muy nuboso
 Viento del OSO
Viento: OSO 22 km/h
Temperatura: 10°C
Sensación frio: 7°C
Rocío: 7°C
Humedad: 82%
Barómetro: 1025 hPa
Clouds: Muy nuboso
Visibility: 10 km
Cloud details: Muy nuboso 396 m
2017/12/13 13:00 LESA 131300Z 25012KT 210V270 9999 BKN013 10/07 Q1025
 
LEXJ - Santander/Paraya, Spain
Distance from station: NNO 247km
Actualización: 13/12/2017 14:00
Muy nuboso
Muy nuboso
 Viento del SSO
Viento: SSO 17 km/h
Temperatura: 15°C
Rocío: 4°C
Humedad: 48%
Barómetro: 1017 hPa
Clouds: Muy nuboso
Visibility: 10 km
Cloud details: Muy nuboso 2316 m
2017/12/13 13:00 LEXJ 131300Z 20009KT 160V260 9999 BKN076 15/04 Q1017
LEAS - Asturias/Aviles, Spain
Distance from station: NO 214km
Actualización: 13/12/2017 14:00
Parcialmente nuboso
Parcialmente nuboso
 Viento del OSO
Viento: OSO 30 km/h
Temperatura: 16°C
Rocío: 8°C
Humedad: 59%
Barómetro: 1017 hPa
Clouds: Parcialmente nuboso
Visibility: 10 km
Cloud details: Parcialmente nuboso 1219 m
Parcialmente nuboso 1524 m
2017/12/13 13:00 LEAS 131300Z 24016KT 190V270 9999 SCT040 SCT050 16/08 Q1017 NOSIG
 
LECO - La Coruna/Alvedr, Spain
Distance from station: ONO 222km
Actualización: 13/12/2017 14:00
Muy nuboso
Muy nuboso
 Viento del SSO
Viento: SSO 24 km/h, Racha: 43 km/h
Temperatura: 14°C
Rocío: 11°C
Humedad: 82%
Barómetro: 1021 hPa
Clouds: Muy nuboso
Visibility: 10 km
Cloud details: Parcialmente nuboso 701 m
Muy nuboso 914 m
2017/12/13 13:00 LECO 131300Z 21013G23KT 190V250 9999 SCT023 BKN030 14/11 Q1021 NOSIG
LEVX - Vigo/Peinador, Spain
Distance from station: O 214km
Actualización: 13/12/2017 14:00
Lluvia débil, Patches of, Niebla, Muy nuboso
Lluvia débil, Patches of, Niebla, Muy nuboso
 Viento del S
Viento: S 17 km/h
Temperatura: 11°C
Rocío: 10°C
Humedad: 94%
Barómetro: 1025 hPa
Resumen: Lluvia débil, Patches of, Niebla
Clouds: Muy nuboso
Visibility: 3 km
Cloud details: Muy nuboso 91 m
Muy nuboso 549 m
2017/12/13 13:00 LEVX 131300Z 19009KT 130V230 2500 1000SE -RA BCFG BKN003 BKN018 11/10 Q1025 TEMPO 0800 BCFG